Latest Weather Observations for Proserpine

IDQ60801

Issued at 1:32 pm EST Monday 19 November 2018 (issued every 10 minutes, with the page automatically refreshed every 10 minutes)

About weather observations | Map of weather stations | Latest weather observations for QLD | Other Formats
Station Details ID: 033247 Name: PROSERPINE AIRPORT Lat: -20.49 Lon: 148.56 Height: 19.7 m
Data from the previous 72 hours. | See also: Recent months at Proserpine
Date/Time
EST
Temp
°C
App
Temp
°C
Dew
Point
°C
Rel
Hum
%
Delta-T
°C
Wind Press
QNH
hPa
Press
MSL
hPa
Rain since
9am
mm
Dir  Spd
km/h
Gust
km/h
Spd
kts
Gust
kts
19/01:30pm 30.4 28.5 19.4 51 7.2 ESE 28 41 15 22 1012.9 1012.8 0.0
19/01:00pm 31.2 30.0 18.5 46 8.2 ESE 22 32 12 17 1013.2 1013.1 0.0
19/12:30pm 30.8 29.6 18.5 47 7.9 ESE 22 39 12 21 1013.4 1013.3 0.0
19/12:00pm 30.6 29.2 18.0 47 8.1 ESE 22 37 12 20 1013.6 1013.5 0.0
19/11:30am 30.0 28.7 18.1 49 7.6 ESE 22 35 12 19 1013.9 1013.8 0.0
19/11:00am 30.0 29.3 19.4 53 6.9 ESE 22 35 12 19 1014.1 1014.0 0.0
19/10:30am 29.5 28.0 18.6 52 7.0 ESE 24 33 13 18 1014.5 1014.4 0.0
19/10:00am 28.9 28.1 20.1 59 5.8 ESE 24 39 13 21 1014.7 1014.6 0.0
19/09:30am 29.0 27.9 18.7 53 6.6 ESE 22 37 12 20 1014.8 1014.7 0.0
19/09:00am 28.4 27.7 20.2 61 5.4 SE 24 32 13 17 1015.0 1014.9 0.2
19/08:30am 27.7 27.4 20.3 64 4.9 ESE 22 33 12 18 1015.1 1015.0 0.2
19/08:00am 28.4 28.0 19.3 57 5.9 E 20 32 11 17 1015.1 1015.0 0.2
19/07:30am 26.6 27.0 20.7 70 3.9 ESE 19 24 10 13 1015.1 1015.0 0.2
19/07:00am 24.6 26.2 20.7 79 2.6 SSE 13 17 7 9 1014.8 1014.7 0.0
19/06:30am 23.3 24.8 20.6 85 1.8 SSE 13 17 7 9 1014.8 1014.7 0.0
19/06:00am 23.2 24.5 20.2 83 1.9 S 13 17 7 9 1014.6 1014.5 0.0
19/05:30am 22.7 24.0 20.2 86 1.6 S 13 17 7 9 1014.5 1014.4 0.0
19/05:00am 21.9 23.6 20.2 90 1.1 SSW 11 17 6 9 1014.3 1014.2 0.0
19/04:30am 21.0 23.0 19.1 89 1.2 SSW 7 9 4 5 1014.0 1013.9 0.0
19/04:00am 20.9 23.4 19.0 89 1.2 SW 4 9 2 5 1013.8 1013.7 0.0
19/03:30am 21.3 24.2 19.0 87 1.5 SSW 2 9 1 5 1013.6 1013.5 0.0
19/03:00am 21.5 24.8 19.1 86 1.5 CALM 0 6 0 3 1013.6 1013.5 0.0
19/02:30am 21.5 23.1 19.1 86 1.5 SW 9 9 5 5 1013.6 1013.5 0.0
19/02:00am 21.7 25.0 19.1 85 1.6 CALM 0 0 0 0 1013.7 1013.6 0.0
19/01:30am 21.6 24.8 18.8 84 1.8 CALM 0 0 0 0 1013.7 1013.6 0.0
19/01:00am 21.9 25.2 19.1 84 1.8 CALM 0 0 0 0 1013.6 1013.5 0.0
19/12:30am 21.6 24.9 19.0 85 1.6 CALM 0 0 0 0 1014.3 1014.2 0.0
19/12:00am 21.2 24.2 18.4 84 1.7 CALM 0 0 0 0 1014.6 1014.5 0.0
 
Date/Time
EST
Temp
°C
App
Temp
°C
Dew
Point
°C
Rel
Hum
%
Delta-T
°C
Wind Press
QNH
hPa
Press
MSL
hPa
Rain since
9am
mm
Dir  Spd
km/h
Gust
km/h
Spd
kts
Gust
kts
18/11:30pm 21.3 24.4 18.7 85 1.6 CALM 0 0 0 0 1014.8 1014.7 0.0
18/11:00pm 20.8 23.0 18.4 86 1.5 WNW 4 7 2 4 1014.8 1014.7 0.0
18/10:30pm 21.3 24.2 18.1 82 2.0 CALM 0 0 0 0 1014.8 1014.7 0.0
18/10:00pm 22.5 25.7 18.9 80 2.3 CALM 0 0 0 0 1014.8 1014.7 0.0
18/09:30pm 22.7 26.0 19.1 80 2.3 CALM 0 4 0 2 1014.5 1014.4 0.0
18/09:00pm 22.7 24.5 18.7 78 2.5 S 7 9 4 5 1014.4 1014.3 0.0
18/08:30pm 23.8 25.8 19.1 75 3.0 SE 7 7 4 4 1014.1 1014.0 0.0
18/08:00pm 23.6 25.0 18.7 74 3.1 ESE 9 11 5 6 1013.8 1013.7 0.0
18/07:30pm 24.9 25.7 19.1 70 3.7 E 13 15 7 8 1013.3 1013.2 0.0
18/07:00pm 25.5 26.0 18.4 65 4.5 E 13 17 7 9 1013.0 1012.9 0.0
18/06:30pm 26.1 26.7 18.5 63 4.8 E 13 19 7 10 1012.7 1012.6 0.0
18/06:00pm 27.4 26.6 18.1 57 5.9 ENE 19 24 10 13 1012.3 1012.2 0.0
18/05:30pm 28.1 27.5 18.5 56 6.1 ESE 19 28 10 15 1011.9 1011.8 0.0
18/05:00pm 29.0 27.9 17.8 50 7.1 E 20 28 11 15 1011.6 1011.5 0.0
18/04:30pm 29.8 28.6 18.3 50 7.4 E 22 33 12 18 1011.5 1011.4 0.0
18/04:00pm 30.1 27.6 16.1 42 8.7 E 24 33 13 18 1011.3 1011.2 0.0
18/03:30pm 31.3 28.7 14.9 37 10.1 E 22 32 12 17 1011.4 1011.3 0.0
18/03:00pm 31.9 29.2 13.6 32 11.0 ESE 20 30 11 16 1011.4 1011.3 0.0
18/02:30pm 31.1 28.1 14.7 37 10.0 E 24 32 13 17 1011.6 1011.5 0.0
18/02:00pm 31.7 29.3 16.4 39 9.6 ESE 24 41 13 22 1011.9 1011.8 0.0
18/01:30pm 31.6 30.0 16.4 40 9.6 ESE 20 32 11 17 1012.2 1012.1 0.0
18/01:00pm 30.9 29.7 17.6 45 8.5 E 20 33 11 18 1012.4 1012.3 0.0
18/12:30pm 30.4 28.8 17.5 46 8.2 E 22 33 12 18 1012.8 1012.7 0.0
18/12:00pm 30.2 29.1 18.6 49 7.5 E 22 33 12 18 1013.2 1013.1 0.0
18/11:30am 29.9 28.2 18.0 48 7.6 ESE 24 33 13 18 1013.5 1013.4 0.0
18/11:00am 30.3 29.9 19.3 51 7.2 ESE 20 33 11 18 1013.9 1013.8 0.0
18/10:30am 30.0 30.2 19.4 53 6.9 ESE 17 33 9 18 1014.0 1013.9 0.0
18/10:00am 29.9 30.1 19.3 53 6.9 E 17 30 9 16 1014.2 1014.1 0.0
18/09:30am 28.2 28.4 19.4 59 5.7 ESE 17 30 9 16 1014.5 1014.4 0.0
18/09:00am 27.6 27.6 18.9 59 5.6 E 17 22 9 12 1014.5 1014.4 0.0
18/08:30am 26.9 27.4 19.3 63 4.9 ESE 15 24 8 13 1014.3 1014.2 0.0
18/08:00am 26.8 27.4 20.2 67 4.3 ESE 17 24 9 13 1014.3 1014.2 0.0
18/07:30am 26.7 28.1 20.3 68 4.2 SE 13 20 7 11 1014.3 1014.2 0.0
18/07:00am 25.3 27.1 20.3 74 3.3 SSE 11 15 6 8 1014.1 1014.0 0.0
18/06:30am 22.9 25.2 19.9 83 1.9 S 7 9 4 5 1013.9 1013.8 0.0
18/06:00am 20.1 21.1 18.6 91 0.9 SSW 11 13 6 7 1013.6 1013.5 0.0
18/05:30am 18.7 19.7 17.7 94 0.6 SSW 9 11 5 6 1013.1 1013.0 0.0
18/05:00am 18.5 19.4 17.5 94 0.6 SSW 9 11 5 6 1012.7 1012.6 0.0
18/04:30am 18.3 18.6 17.0 92 0.8 SSW 11 13 6 7 1012.3 1012.2 0.0
18/04:00am 18.1 20.3 16.6 91 0.9 CALM 0 0 0 0 1012.1 1012.0 0.0
18/03:30am 18.0 19.0 16.3 90 1.0 WSW 6 7 3 4 1011.9 1011.8 0.0
18/03:00am 18.2 19.3 16.7 91 0.9 WNW 6 7 3 4 1012.0 1011.9 0.0
18/02:30am 19.4 22.1 17.7 90 1.0 CALM 0 0 0 0 1012.1 1012.0 0.0
18/02:00am 19.4 20.7 17.5 89 1.2 S 7 9 4 5 1012.5 1012.4 0.0
18/01:30am 19.2 20.6 17.3 89 1.2 SSW 6 7 3 4 1012.5 1012.4 0.0
18/01:00am 19.0 20.3 17.0 88 1.2 SW 6 7 3 4 1012.8 1012.7 0.0
18/12:30am 19.6 21.1 17.6 88 1.2 SW 6 7 3 4 1013.1 1013.0 0.0
18/12:00am 19.5 20.6 17.1 86 1.5 SSW 7 11 4 6 1013.5 1013.4 0.0
 
Date/Time
EST
Temp
°C
App
Temp
°C
Dew
Point
°C
Rel
Hum
%
Delta-T
°C
Wind Press
QNH
hPa
Press
MSL
hPa
Rain since
9am
mm
Dir  Spd
km/h
Gust
km/h
Spd
kts
Gust
kts
17/11:30pm 20.1 22.6 17.3 84 1.7 CALM 0 0 0 0 1013.9 1013.8 0.0
17/11:00pm 20.7 23.3 18.3 86 1.5 SW 2 7 1 4 1014.0 1013.9 0.0
17/10:30pm 21.2 22.4 18.2 83 1.9 SSW 9 11 5 6 1013.9 1013.8 0.0
17/10:00pm 21.5 23.2 18.5 83 1.9 SW 7 9 4 5 1013.9 1013.8 0.0
17/09:30pm 21.5 22.9 17.9 80 2.2 SSW 7 9 4 5 1013.8 1013.7 0.0
17/09:00pm 22.8 24.3 18.8 78 2.5 SSE 9 9 5 5 1013.5 1013.4 0.0
17/08:30pm 22.7 24.0 18.5 77 2.6 SSE 9 11 5 6 1013.4 1013.3 0.0
17/08:00pm 22.9 24.3 17.8 73 3.2 SSE 7 9 4 5 1013.2 1013.1 0.0
17/07:30pm 23.4 24.8 17.8 71 3.5 ESE 7 9 4 5 1012.8 1012.7 0.0
17/07:00pm 24.3 25.0 18.0 68 4.0 ESE 11 13 6 7 1012.7 1012.6 0.0
17/06:30pm 25.8 26.6 18.2 63 4.8 ESE 11 15 6 8 1012.3 1012.2 0.0
17/06:00pm 27.3 27.0 18.3 58 5.7 E 17 22 9 12 1011.8 1011.7 0.0
17/05:30pm 28.3 27.2 17.8 53 6.7 E 20 26 11 14 1011.6 1011.5 0.0
17/05:00pm 29.2 27.6 17.4 49 7.5 ENE 22 30 12 16 1011.4 1011.3 0.0
17/04:30pm 29.8 28.2 16.6 45 8.3 E 20 30 11 16 1011.4 1011.3 0.0
17/04:00pm 29.9 28.2 16.3 43 8.5 E 20 30 11 16 1011.3 1011.2 0.0
17/03:30pm 30.9 29.6 17.2 43 8.7 E 20 32 11 17 1011.4 1011.3 0.0
17/03:00pm 30.8 28.9 16.8 43 8.8 ESE 22 35 12 19 1011.4 1011.3 0.0
17/02:30pm 31.2 29.4 16.0 40 9.5 ESE 20 32 11 17 1011.8 1011.7 0.0
17/02:00pm 31.4 29.8 16.6 41 9.3 ESE 20 32 11 17 1012.2 1012.1 0.0
17/01:30pm 30.8 28.6 16.8 43 8.8 ESE 24 35 13 19 1012.6 1012.5 0.0
17/01:00pm 31.2 30.6 17.5 44 8.7 ESE 17 28 9 15 1012.9 1012.8 0.0
17/12:30pm 30.6 29.0 16.6 43 8.8 ESE 20 28 11 15 1013.3 1013.2 0.0
17/12:00pm 29.5 26.9 16.0 44 8.4 SE 24 32 13 17 1013.6 1013.5 0.0
17/11:30am 29.9 28.7 17.4 47 7.9 SE 20 30 11 16 1013.9 1013.8 0.0
17/11:00am 30.5 29.6 18.2 47 7.9 SE 20 30 11 16 1014.2 1014.1 0.0
17/10:30am 29.7 29.4 18.2 50 7.4 SE 17 28 9 15 1014.5 1014.4 0.0
17/10:00am 28.1 27.3 17.0 51 6.9 SE 17 26 9 14 1014.7 1014.6 0.0
17/09:30am 28.8 28.8 17.3 49 7.3 SE 13 19 7 10 1014.8 1014.7 0.0
17/09:00am 29.1 30.6 18.8 53 6.6 ESE 9 22 5 12 1014.8 1014.7 -
17/08:30am 27.4 27.7 17.8 55 6.1 ESE 13 22 7 12 1015.0 1014.9 -
17/08:00am 26.8 27.7 18.4 60 5.3 ENE 11 19 6 10 1015.0 1014.9 -
17/07:30am 25.7 27.9 19.1 67 4.2 SSE 6 11 3 6 1014.8 1014.7 -
17/07:00am 23.9 25.2 18.5 72 3.4 SSW 9 11 5 6 1014.5 1014.4 -
17/06:30am 21.9 23.6 18.5 81 2.1 SW 7 9 4 5 1014.2 1014.1 -
17/06:00am 19.7 21.1 17.8 89 1.2 SE 7 9 4 5 1014.0 1013.9 -
17/05:30am 18.7 21.0 16.7 88 1.2 CALM 0 9 0 5 1013.8 1013.7 -
17/05:00am 19.0 21.4 17.1 89 1.2 CALM 0 0 0 0 1013.5 1013.4 -
17/04:30am 19.2 20.6 17.3 89 1.2 SW 6 7 3 4 1013.1 1013.0 -
17/04:00am 19.3 21.9 17.4 89 1.2 CALM 0 0 0 0 1012.9 1012.8 -
17/03:30am 19.0 19.7 17.1 89 1.2 SW 9 9 5 5 1012.6 1012.5 -
17/03:00am 19.1 20.2 17.2 89 1.2 SW 7 9 4 5 1012.5 1012.4 0.0
17/02:30am 19.3 20.7 17.3 88 1.2 SW 6 7 3 4 1012.5 1012.4 -
17/02:00am 19.5 20.7 17.3 87 1.3 SW 7 7 4 4 1012.6 1012.5 -
17/01:30am 20.0 22.6 17.6 86 1.5 CALM 0 0 0 0 1012.8 1012.7 -
17/01:00am 20.0 20.9 17.6 86 1.5 SSW 9 11 5 6 1013.1 1013.0 -
17/12:30am 20.4 21.1 18.0 86 1.5 SSW 11 13 6 7 1013.6 1013.5 -
17/12:00am 20.4 21.7 17.6 84 1.7 SSW 7 9 4 5 1014.1 1014.0 -
 
Date/Time
EST
Temp
°C
App
Temp
°C
Dew
Point
°C
Rel
Hum
%
Delta-T
°C
Wind Press
QNH
hPa
Press
MSL
hPa
Rain since
9am
mm
Dir  Spd
km/h
Gust
km/h
Spd
kts
Gust
kts
16/11:30pm 20.6 20.9 18.0 85 1.6 SW 13 13 7 7 1014.4 1014.3 -
16/11:00pm 21.1 22.6 18.1 83 1.9 S 7 9 4 5 1014.7 1014.6 -
16/10:30pm 20.8 21.8 17.8 83 1.9 SSW 9 11 5 6 1014.9 1014.8 -
16/10:00pm 21.8 23.1 18.4 81 2.1 S 9 11 5 6 1014.9 1014.8 -
16/09:30pm 21.8 23.3 18.0 79 2.4 SSW 7 9 4 5 1014.9 1014.8 -
16/09:00pm 23.2 24.6 18.7 76 2.8 ESE 9 11 5 6 1014.7 1014.6 0.0
16/08:30pm 23.5 25.0 18.8 75 3.0 ESE 9 13 5 7 1014.4 1014.3 -
16/08:00pm 23.4 24.8 18.7 75 3.0 SE 9 11 5 6 1014.3 1014.2 -
16/07:30pm 24.1 24.7 18.7 72 3.4 E 13 17 7 9 1013.9 1013.8 -
16/07:00pm 24.5 24.9 19.1 72 3.4 ESE 15 17 8 9 1013.7 1013.6 -
16/06:30pm 25.1 25.6 19.2 70 3.8 E 15 19 8 10 1013.5 1013.4 -
16/06:00pm 26.0 25.6 18.9 65 4.5 ESE 19 26 10 14 1013.2 1013.1 -
16/05:30pm 27.1 25.8 18.1 58 5.7 ESE 22 33 12 18 1012.9 1012.8 -
16/05:00pm 27.7 25.7 17.5 53 6.4 ESE 24 32 13 17 1012.7 1012.6 -
16/04:30pm 28.7 27.0 17.2 49 7.2 ESE 22 30 12 16 1012.6 1012.5 -
16/04:00pm 29.2 26.8 17.4 49 7.5 ESE 26 39 14 21 1012.4 1012.3 -
16/03:30pm 29.9 27.5 16.3 43 8.5 E 24 35 13 19 1012.4 1012.3 -
16/03:00pm 30.6 28.0 15.8 40 9.2 E 24 35 13 19 1012.3 1012.2 -
16/02:30pm 30.6 27.9 15.5 40 9.3 E 24 35 13 19 1012.4 1012.3 -
16/02:00pm 31.4 28.2 13.2 33 10.9 E 22 35 12 19 1012.7 1012.6 -

Other Formats:

Comma delimited format used in spreadsheet applications
http://www.bom.gov.au/fwo/IDQ60801/IDQ60801.94365.axf

JavaScript Object Notation format (JSON) in row-major order
http://www.bom.gov.au/fwo/IDQ60801/IDQ60801.94365.json